< < Back
Terminal Aerodrome Forecast


Current Version              Previous Versions:   1  2  3  4  5  6  7  8  9  

Terminal Aerodrome Forecast

570
FTUS44 KOHX 031100
TAFCSV
TAF
KCSV 031120Z 0312/0412 VRB04KT 6SM BR OVC007
      TEMPO 0312/0316 2SM BR OVC003
     FM031600 19006KT 5SM -SHRA OVC003
     FM040900 22009KT 5SM -RA OVC003=



Latest METAR

118
SAUS70 KWBC 040300
MTRCSV
METAR KCSV 040253Z AUTO VRB06G14KT 10SM OVC003 14/13 A2998 RMK AO2
SLP144 60002 T01390128 58009


USA.gov is the U.S. government's official web portal to all federal, state and local government web resources and services.